sensor_id;sensor_type;location;lat;lon;timestamp;P1;durP1;ratioP1;P2;durP2;ratioP2
28653;SDS011;24320;56.980;24.336;2023-07-31T00:00:15;72.32;;;9.48;;
28653;SDS011;24320;56.980;24.336;2023-07-31T00:02:42;38.90;;;9.05;;
28653;SDS011;24320;56.980;24.336;2023-07-31T00:05:09;54.90;;;9.55;;
28653;SDS011;24320;56.980;24.336;2023-07-31T00:07:36;157.57;;;13.55;;
28653;SDS011;24320;56.980;24.336;2023-07-31T00:10:03;53.05;;;8.15;;
28653;SDS011;24320;56.980;24.336;2023-07-31T00:12:30;18.73;;;7.05;;
28653;SDS011;24320;56.980;24.336;2023-07-31T00:14:57;11.30;;;7.25;;
28653;SDS011;24320;56.980;24.336;2023-07-31T00:17:24;12.68;;;7.45;;
28653;SDS011;24320;56.980;24.336;2023-07-31T00:19:51;12.10;;;7.28;;
28653;SDS011;24320;56.980;24.336;2023-07-31T00:22:18;11.05;;;7.60;;
28653;SDS011;24320;56.980;24.336;2023-07-31T00:24:45;11.20;;;7.65;;
28653;SDS011;24320;56.980;24.336;2023-07-31T00:27:12;11.68;;;7.50;;
28653;SDS011;24320;56.980;24.336;2023-07-31T00:29:39;8.82;;;6.47;;
28653;SDS011;24320;56.980;24.336;2023-07-31T00:32:06;11.85;;;7.18;;
28653;SDS011;24320;56.980;24.336;2023-07-31T00:34:33;11.88;;;7.32;;
28653;SDS011;24320;56.980;24.336;2023-07-31T00:37:01;11.00;;;7.15;;
28653;SDS011;24320;56.980;24.336;2023-07-31T00:39:29;9.57;;;7.05;;
28653;SDS011;24320;56.980;24.336;2023-07-31T00:41:56;12.98;;;7.45;;
28653;SDS011;24320;56.980;24.336;2023-07-31T00:44:23;12.90;;;7.57;;
28653;SDS011;24320;56.980;24.336;2023-07-31T00:46:50;12.38;;;6.53;;
28653;SDS011;24320;56.980;24.336;2023-07-31T00:49:18;14.05;;;7.75;;
28653;SDS011;24320;56.980;24.336;2023-07-31T00:51:45;13.77;;;8.30;;
28653;SDS011;24320;56.980;24.336;2023-07-31T00:54:12;16.02;;;8.80;;
28653;SDS011;24320;56.980;24.336;2023-07-31T00:56:39;15.60;;;9.05;;
28653;SDS011;24320;56.980;24.336;2023-07-31T00:59:07;13.85;;;9.23;;
28653;SDS011;24320;56.980;24.336;2023-07-31T01:01:34;15.38;;;8.75;;
28653;SDS011;24320;56.980;24.336;2023-07-31T01:04:01;14.73;;;9.23;;
28653;SDS011;24320;56.980;24.336;2023-07-31T01:06:31;14.93;;;10.20;;
28653;SDS011;24320;56.980;24.336;2023-07-31T01:09:09;18.33;;;9.63;;
28653;SDS011;24320;56.980;24.336;2023-07-31T01:11:50;17.52;;;9.02;;
28653;SDS011;24320;56.980;24.336;2023-07-31T01:14:19;21.92;;;10.20;;
28653;SDS011;24320;56.980;24.336;2023-07-31T01:16:46;16.90;;;9.77;;
28653;SDS011;24320;56.980;24.336;2023-07-31T01:19:17;13.52;;;9.13;;
28653;SDS011;24320;56.980;24.336;2023-07-31T01:27:14;19.60;;;9.35;;
28653;SDS011;24320;56.980;24.336;2023-07-31T01:29:47;22.05;;;8.95;;
28653;SDS011;24320;56.980;24.336;2023-07-31T01:32:22;14.20;;;9.23;;
28653;SDS011;24320;56.980;24.336;2023-07-31T01:34:51;21.75;;;8.98;;
28653;SDS011;24320;56.980;24.336;2023-07-31T01:37:19;16.58;;;9.20;;
28653;SDS011;24320;56.980;24.336;2023-07-31T01:39:46;17.27;;;8.48;;
28653;SDS011;24320;56.980;24.336;2023-07-31T01:42:13;14.57;;;9.02;;
28653;SDS011;24320;56.980;24.336;2023-07-31T01:44:40;16.63;;;9.68;;
28653;SDS011;24320;56.980;24.336;2023-07-31T01:47:07;26.45;;;10.45;;
28653;SDS011;24320;56.980;24.336;2023-07-31T01:49:35;17.20;;;8.95;;
28653;SDS011;24320;56.980;24.336;2023-07-31T01:52:02;33.63;;;10.88;;
28653;SDS011;24320;56.980;24.336;2023-07-31T01:54:29;31.98;;;10.10;;
28653;SDS011;24320;56.980;24.336;2023-07-31T01:56:56;64.22;;;11.25;;
28653;SDS011;24320;56.980;24.336;2023-07-31T01:59:23;79.40;;;11.63;;
28653;SDS011;24320;56.980;24.336;2023-07-31T02:01:50;70.55;;;9.77;;
28653;SDS011;24320;56.980;24.336;2023-07-31T02:04:20;57.10;;;10.33;;
28653;SDS011;24320;56.980;24.336;2023-07-31T02:06:47;88.95;;;10.77;;
28653;SDS011;24320;56.980;24.336;2023-07-31T02:09:14;58.80;;;11.27;;
28653;SDS011;24320;56.980;24.336;2023-07-31T02:11:41;76.93;;;12.10;;
28653;SDS011;24320;56.980;24.336;2023-07-31T02:14:08;36.70;;;10.20;;
28653;SDS011;24320;56.980;24.336;2023-07-31T02:16:35;37.45;;;10.77;;
28653;SDS011;24320;56.980;24.336;2023-07-31T02:19:03;33.70;;;9.93;;
28653;SDS011;24320;56.980;24.336;2023-07-31T02:21:30;28.98;;;10.35;;
28653;SDS011;24320;56.980;24.336;2023-07-31T02:23:57;25.88;;;11.02;;
28653;SDS011;24320;56.980;24.336;2023-07-31T02:26:24;38.72;;;10.07;;
28653;SDS011;24320;56.980;24.336;2023-07-31T02:28:51;27.60;;;10.23;;
28653;SDS011;24320;56.980;24.336;2023-07-31T02:31:18;27.90;;;10.82;;
28653;SDS011;24320;56.980;24.336;2023-07-31T02:33:48;31.00;;;9.98;;
28653;SDS011;24320;56.980;24.336;2023-07-31T02:36:15;26.15;;;9.98;;
28653;SDS011;24320;56.980;24.336;2023-07-31T02:38:42;23.73;;;9.38;;
28653;SDS011;24320;56.980;24.336;2023-07-31T02:41:09;24.30;;;9.50;;
28653;SDS011;24320;56.980;24.336;2023-07-31T02:43:36;22.15;;;9.15;;
28653;SDS011;24320;56.980;24.336;2023-07-31T02:46:03;32.42;;;9.00;;
28653;SDS011;24320;56.980;24.336;2023-07-31T02:48:30;45.80;;;9.60;;
28653;SDS011;24320;56.980;24.336;2023-07-31T02:50:57;31.23;;;9.38;;
28653;SDS011;24320;56.980;24.336;2023-07-31T02:53:24;30.63;;;8.55;;
28653;SDS011;24320;56.980;24.336;2023-07-31T02:55:51;16.92;;;8.90;;
28653;SDS011;24320;56.980;24.336;2023-07-31T02:58:18;19.90;;;8.60;;
28653;SDS011;24320;56.980;24.336;2023-07-31T03:00:45;22.13;;;9.02;;
28653;SDS011;24320;56.980;24.336;2023-07-31T03:03:12;30.17;;;8.77;;
28653;SDS011;24320;56.980;24.336;2023-07-31T03:05:40;33.72;;;9.25;;
28653;SDS011;24320;56.980;24.336;2023-07-31T03:08:07;22.40;;;8.65;;
28653;SDS011;24320;56.980;24.336;2023-07-31T03:10:33;24.20;;;8.75;;
28653;SDS011;24320;56.980;24.336;2023-07-31T03:13:00;24.40;;;8.23;;
28653;SDS011;24320;56.980;24.336;2023-07-31T03:15:28;21.70;;;9.13;;
28653;SDS011;24320;56.980;24.336;2023-07-31T03:17:55;22.15;;;9.57;;
28653;SDS011;24320;56.980;24.336;2023-07-31T03:20:22;18.55;;;9.43;;
28653;SDS011;24320;56.980;24.336;2023-07-31T03:22:49;17.98;;;9.55;;
28653;SDS011;24320;56.980;24.336;2023-07-31T03:25:16;20.42;;;9.13;;
28653;SDS011;24320;56.980;24.336;2023-07-31T03:27:43;14.63;;;8.00;;
28653;SDS011;24320;56.980;24.336;2023-07-31T03:30:10;17.23;;;8.48;;
28653;SDS011;24320;56.980;24.336;2023-07-31T03:32:37;14.75;;;8.95;;
28653;SDS011;24320;56.980;24.336;2023-07-31T03:35:04;13.48;;;8.07;;
28653;SDS011;24320;56.980;24.336;2023-07-31T03:37:32;18.23;;;8.82;;
28653;SDS011;24320;56.980;24.336;2023-07-31T03:39:59;22.67;;;9.25;;
28653;SDS011;24320;56.980;24.336;2023-07-31T03:42:26;12.35;;;8.20;;
28653;SDS011;24320;56.980;24.336;2023-07-31T03:44:53;15.10;;;8.75;;
28653;SDS011;24320;56.980;24.336;2023-07-31T03:47:20;13.73;;;8.63;;
28653;SDS011;24320;56.980;24.336;2023-07-31T03:49:47;11.32;;;8.10;;
28653;SDS011;24320;56.980;24.336;2023-07-31T03:52:14;11.60;;;8.55;;
28653;SDS011;24320;56.980;24.336;2023-07-31T03:54:41;12.00;;;8.63;;
28653;SDS011;24320;56.980;24.336;2023-07-31T03:57:10;12.40;;;8.10;;
28653;SDS011;24320;56.980;24.336;2023-07-31T03:59:37;10.55;;;7.75;;
28653;SDS011;24320;56.980;24.336;2023-07-31T04:02:05;10.55;;;7.28;;
28653;SDS011;24320;56.980;24.336;2023-07-31T04:04:32;11.48;;;7.10;;
28653;SDS011;24320;56.980;24.336;2023-07-31T04:07:01;11.32;;;6.82;;
28653;SDS011;24320;56.980;24.336;2023-07-31T04:09:28;8.68;;;6.57;;
28653;SDS011;24320;56.980;24.336;2023-07-31T04:11:55;9.88;;;6.95;;
28653;SDS011;24320;56.980;24.336;2023-07-31T04:14:22;11.88;;;7.15;;
28653;SDS011;24320;56.980;24.336;2023-07-31T04:16:50;8.65;;;6.90;;
28653;SDS011;24320;56.980;24.336;2023-07-31T04:19:17;12.25;;;6.90;;
28653;SDS011;24320;56.980;24.336;2023-07-31T04:21:50;10.48;;;7.80;;
28653;SDS011;24320;56.980;24.336;2023-07-31T04:24:17;10.30;;;6.82;;
28653;SDS011;24320;56.980;24.336;2023-07-31T04:26:51;11.82;;;7.10;;
28653;SDS011;24320;56.980;24.336;2023-07-31T04:29:18;12.80;;;7.00;;
28653;SDS011;24320;56.980;24.336;2023-07-31T04:31:47;9.80;;;7.22;;
28653;SDS011;24320;56.980;24.336;2023-07-31T04:34:15;9.40;;;6.30;;
28653;SDS011;24320;56.980;24.336;2023-07-31T04:36:42;8.18;;;5.03;;
28653;SDS011;24320;56.980;24.336;2023-07-31T04:39:09;9.95;;;6.25;;
28653;SDS011;24320;56.980;24.336;2023-07-31T04:41:36;8.40;;;6.00;;
28653;SDS011;24320;56.980;24.336;2023-07-31T04:44:03;7.22;;;5.75;;
28653;SDS011;24320;56.980;24.336;2023-07-31T04:46:30;9.73;;;5.50;;
28653;SDS011;24320;56.980;24.336;2023-07-31T04:48:57;11.38;;;6.38;;
28653;SDS011;24320;56.980;24.336;2023-07-31T04:51:24;9.23;;;6.15;;
28653;SDS011;24320;56.980;24.336;2023-07-31T04:53:51;9.32;;;6.70;;
28653;SDS011;24320;56.980;24.336;2023-07-31T04:56:18;11.10;;;7.20;;
28653;SDS011;24320;56.980;24.336;2023-07-31T04:58:45;9.88;;;7.07;;
28653;SDS011;24320;56.980;24.336;2023-07-31T05:01:12;10.50;;;7.38;;
28653;SDS011;24320;56.980;24.336;2023-07-31T05:03:43;11.43;;;7.45;;
28653;SDS011;24320;56.980;24.336;2023-07-31T05:06:10;11.30;;;7.78;;
28653;SDS011;24320;56.980;24.336;2023-07-31T05:08:38;17.67;;;8.20;;
28653;SDS011;24320;56.980;24.336;2023-07-31T05:11:05;13.85;;;8.32;;
28653;SDS011;24320;56.980;24.336;2023-07-31T05:13:32;12.82;;;7.60;;
28653;SDS011;24320;56.980;24.336;2023-07-31T05:15:59;11.57;;;7.57;;
28653;SDS011;24320;56.980;24.336;2023-07-31T05:18:28;15.05;;;7.82;;
28653;SDS011;24320;56.980;24.336;2023-07-31T05:20:55;10.68;;;7.25;;
28653;SDS011;24320;56.980;24.336;2023-07-31T05:23:22;11.35;;;7.72;;
28653;SDS011;24320;56.980;24.336;2023-07-31T05:25:49;11.95;;;7.68;;
28653;SDS011;24320;56.980;24.336;2023-07-31T05:28:16;9.60;;;6.78;;
28653;SDS011;24320;56.980;24.336;2023-07-31T05:30:44;13.02;;;8.43;;
28653;SDS011;24320;56.980;24.336;2023-07-31T05:33:11;10.88;;;7.13;;
28653;SDS011;24320;56.980;24.336;2023-07-31T05:35:40;9.60;;;7.07;;
28653;SDS011;24320;56.980;24.336;2023-07-31T05:38:07;9.95;;;7.88;;
28653;SDS011;24320;56.980;24.336;2023-07-31T05:40:34;11.52;;;8.38;;
28653;SDS011;24320;56.980;24.336;2023-07-31T05:43:01;16.08;;;8.05;;
28653;SDS011;24320;56.980;24.336;2023-07-31T05:45:28;12.80;;;7.75;;
28653;SDS011;24320;56.980;24.336;2023-07-31T05:47:55;16.95;;;9.55;;
28653;SDS011;24320;56.980;24.336;2023-07-31T05:50:22;15.13;;;8.90;;
28653;SDS011;24320;56.980;24.336;2023-07-31T05:52:49;16.27;;;9.35;;
28653;SDS011;24320;56.980;24.336;2023-07-31T05:55:16;15.43;;;8.85;;
28653;SDS011;24320;56.980;24.336;2023-07-31T05:57:44;14.40;;;8.20;;
28653;SDS011;24320;56.980;24.336;2023-07-31T06:00:12;17.40;;;9.57;;
28653;SDS011;24320;56.980;24.336;2023-07-31T06:02:40;15.48;;;8.90;;
28653;SDS011;24320;56.980;24.336;2023-07-31T06:05:07;12.85;;;7.82;;
28653;SDS011;24320;56.980;24.336;2023-07-31T06:07:34;13.80;;;8.60;;
28653;SDS011;24320;56.980;24.336;2023-07-31T06:10:01;14.18;;;7.43;;
28653;SDS011;24320;56.980;24.336;2023-07-31T06:12:32;12.32;;;7.18;;
28653;SDS011;24320;56.980;24.336;2023-07-31T06:15:00;12.65;;;7.15;;
28653;SDS011;24320;56.980;24.336;2023-07-31T06:17:28;12.95;;;7.03;;
28653;SDS011;24320;56.980;24.336;2023-07-31T06:19:56;12.10;;;7.18;;
28653;SDS011;24320;56.980;24.336;2023-07-31T06:22:23;10.85;;;6.45;;
28653;SDS011;24320;56.980;24.336;2023-07-31T06:24:50;10.13;;;6.25;;
28653;SDS011;24320;56.980;24.336;2023-07-31T06:27:17;9.93;;;5.93;;
28653;SDS011;24320;56.980;24.336;2023-07-31T06:29:44;9.98;;;5.93;;
28653;SDS011;24320;56.980;24.336;2023-07-31T06:32:11;9.73;;;6.13;;
28653;SDS011;24320;56.980;24.336;2023-07-31T06:34:38;6.75;;;4.60;;
28653;SDS011;24320;56.980;24.336;2023-07-31T06:37:05;6.25;;;4.38;;
28653;SDS011;24320;56.980;24.336;2023-07-31T06:39:32;5.57;;;4.00;;
28653;SDS011;24320;56.980;24.336;2023-07-31T06:41:59;5.40;;;4.40;;
28653;SDS011;24320;56.980;24.336;2023-07-31T06:44:26;6.82;;;3.78;;
28653;SDS011;24320;56.980;24.336;2023-07-31T06:46:53;7.30;;;4.20;;
28653;SDS011;24320;56.980;24.336;2023-07-31T06:49:20;4.00;;;3.60;;
28653;SDS011;24320;56.980;24.336;2023-07-31T06:51:50;5.18;;;3.40;;
28653;SDS011;24320;56.980;24.336;2023-07-31T06:54:17;4.30;;;3.30;;
28653;SDS011;24320;56.980;24.336;2023-07-31T06:56:44;3.38;;;2.80;;
28653;SDS011;24320;56.980;24.336;2023-07-31T06:59:11;5.85;;;3.50;;
28653;SDS011;24320;56.980;24.336;2023-07-31T07:01:38;6.10;;;3.40;;
28653;SDS011;24320;56.980;24.336;2023-07-31T07:04:05;4.18;;;3.10;;
28653;SDS011;24320;56.980;24.336;2023-07-31T07:06:32;4.25;;;3.20;;
28653;SDS011;24320;56.980;24.336;2023-07-31T07:08:59;4.93;;;2.90;;
28653;SDS011;24320;56.980;24.336;2023-07-31T07:11:26;3.85;;;3.00;;
28653;SDS011;24320;56.980;24.336;2023-07-31T07:13:53;3.38;;;2.92;;
28653;SDS011;24320;56.980;24.336;2023-07-31T07:16:20;5.38;;;3.20;;
28653;SDS011;24320;56.980;24.336;2023-07-31T07:18:47;5.40;;;3.38;;
28653;SDS011;24320;56.980;24.336;2023-07-31T07:21:29;3.90;;;3.15;;
28653;SDS011;24320;56.980;24.336;2023-07-31T07:23:56;4.93;;;3.50;;
28653;SDS011;24320;56.980;24.336;2023-07-31T07:26:23;4.60;;;3.33;;
28653;SDS011;24320;56.980;24.336;2023-07-31T07:28:50;6.35;;;3.65;;
28653;SDS011;24320;56.980;24.336;2023-07-31T07:31:17;9.43;;;3.67;;
28653;SDS011;24320;56.980;24.336;2023-07-31T07:33:44;4.60;;;3.30;;
28653;SDS011;24320;56.980;24.336;2023-07-31T07:36:11;4.63;;;3.25;;
28653;SDS011;24320;56.980;24.336;2023-07-31T07:38:39;2.83;;;2.45;;
28653;SDS011;24320;56.980;24.336;2023-07-31T07:41:07;7.22;;;3.58;;
28653;SDS011;24320;56.980;24.336;2023-07-31T07:43:34;6.72;;;3.10;;
28653;SDS011;24320;56.980;24.336;2023-07-31T07:46:01;4.03;;;2.83;;
28653;SDS011;24320;56.980;24.336;2023-07-31T07:48:29;4.30;;;3.05;;
28653;SDS011;24320;56.980;24.336;2023-07-31T07:50:56;7.07;;;3.10;;
28653;SDS011;24320;56.980;24.336;2023-07-31T07:53:23;6.63;;;4.30;;
28653;SDS011;24320;56.980;24.336;2023-07-31T07:55:50;6.50;;;5.00;;
28653;SDS011;24320;56.980;24.336;2023-07-31T07:58:17;5.32;;;4.55;;
28653;SDS011;24320;56.980;24.336;2023-07-31T08:00:48;10.05;;;5.22;;
28653;SDS011;24320;56.980;24.336;2023-07-31T08:03:17;5.68;;;4.47;;
28653;SDS011;24320;56.980;24.336;2023-07-31T08:05:45;8.00;;;4.20;;
28653;SDS011;24320;56.980;24.336;2023-07-31T08:08:16;6.63;;;4.13;;
28653;SDS011;24320;56.980;24.336;2023-07-31T08:10:43;4.65;;;3.22;;
28653;SDS011;24320;56.980;24.336;2023-07-31T08:13:11;5.97;;;3.53;;
28653;SDS011;24320;56.980;24.336;2023-07-31T08:15:40;5.13;;;3.53;;
28653;SDS011;24320;56.980;24.336;2023-07-31T08:18:08;4.45;;;3.50;;
28653;SDS011;24320;56.980;24.336;2023-07-31T08:20:36;4.43;;;3.17;;
28653;SDS011;24320;56.980;24.336;2023-07-31T08:23:03;5.28;;;3.10;;
28653;SDS011;24320;56.980;24.336;2023-07-31T08:25:30;4.70;;;2.80;;
28653;SDS011;24320;56.980;24.336;2023-07-31T08:28:01;4.85;;;2.80;;
28653;SDS011;24320;56.980;24.336;2023-07-31T08:30:29;3.97;;;2.47;;
28653;SDS011;24320;56.980;24.336;2023-07-31T08:32:57;6.40;;;3.10;;
28653;SDS011;24320;56.980;24.336;2023-07-31T08:35:24;4.72;;;2.90;;
28653;SDS011;24320;56.980;24.336;2023-07-31T08:37:51;5.43;;;2.63;;
28653;SDS011;24320;56.980;24.336;2023-07-31T08:40:18;3.28;;;2.00;;
28653;SDS011;24320;56.980;24.336;2023-07-31T08:42:46;4.13;;;2.10;;
28653;SDS011;24320;56.980;24.336;2023-07-31T08:45:15;3.55;;;2.30;;
28653;SDS011;24320;56.980;24.336;2023-07-31T08:47:50;4.65;;;2.30;;
28653;SDS011;24320;56.980;24.336;2023-07-31T08:50:18;4.28;;;2.22;;
28653;SDS011;24320;56.980;24.336;2023-07-31T08:52:47;4.40;;;2.67;;
28653;SDS011;24320;56.980;24.336;2023-07-31T08:55:15;3.70;;;2.47;;
28653;SDS011;24320;56.980;24.336;2023-07-31T08:57:43;3.47;;;2.33;;
28653;SDS011;24320;56.980;24.336;2023-07-31T09:00:13;3.30;;;2.58;;
28653;SDS011;24320;56.980;24.336;2023-07-31T09:02:57;4.47;;;2.40;;
28653;SDS011;24320;56.980;24.336;2023-07-31T09:05:31;3.10;;;2.40;;
28653;SDS011;24320;56.980;24.336;2023-07-31T09:07:58;2.80;;;2.47;;
28653;SDS011;24320;56.980;24.336;2023-07-31T09:10:28;3.38;;;2.58;;
28653;SDS011;24320;56.980;24.336;2023-07-31T09:12:55;5.90;;;2.47;;
28653;SDS011;24320;56.980;24.336;2023-07-31T09:15:23;5.00;;;2.70;;
28653;SDS011;24320;56.980;24.336;2023-07-31T09:18:02;4.75;;;2.65;;
28653;SDS011;24320;56.980;24.336;2023-07-31T09:20:31;4.93;;;2.72;;
28653;SDS011;24320;56.980;24.336;2023-07-31T09:23:06;3.00;;;2.47;;
28653;SDS011;24320;56.980;24.336;2023-07-31T09:25:38;4.88;;;2.97;;
28653;SDS011;24320;56.980;24.336;2023-07-31T09:28:07;5.65;;;2.55;;
28653;SDS011;24320;56.980;24.336;2023-07-31T09:30:48;5.43;;;3.00;;
28653;SDS011;24320;56.980;24.336;2023-07-31T09:33:17;9.32;;;3.20;;
28653;SDS011;24320;56.980;24.336;2023-07-31T09:35:44;4.78;;;3.20;;
28653;SDS011;24320;56.980;24.336;2023-07-31T09:38:15;4.68;;;3.20;;
28653;SDS011;24320;56.980;24.336;2023-07-31T09:40:43;6.18;;;3.35;;
28653;SDS011;24320;56.980;24.336;2023-07-31T09:43:13;5.95;;;3.65;;
28653;SDS011;24320;56.980;24.336;2023-07-31T09:45:44;5.53;;;3.65;;
28653;SDS011;24320;56.980;24.336;2023-07-31T09:48:12;6.45;;;4.57;;
28653;SDS011;24320;56.980;24.336;2023-07-31T09:50:44;11.88;;;5.05;;
28653;SDS011;24320;56.980;24.336;2023-07-31T09:53:12;6.10;;;4.88;;
28653;SDS011;24320;56.980;24.336;2023-07-31T09:55:40;7.57;;;4.90;;
28653;SDS011;24320;56.980;24.336;2023-07-31T09:58:09;9.98;;;6.03;;
28653;SDS011;24320;56.980;24.336;2023-07-31T10:00:37;8.65;;;5.90;;
28653;SDS011;24320;56.980;24.336;2023-07-31T10:03:08;9.70;;;6.80;;
28653;SDS011;24320;56.980;24.336;2023-07-31T10:08:04;11.68;;;7.00;;
28653;SDS011;24320;56.980;24.336;2023-07-31T10:10:34;8.45;;;6.63;;
28653;SDS011;24320;56.980;24.336;2023-07-31T10:13:03;10.38;;;6.70;;
28653;SDS011;24320;56.980;24.336;2023-07-31T10:15:32;11.73;;;6.30;;
28653;SDS011;24320;56.980;24.336;2023-07-31T10:17:59;8.88;;;5.68;;
28653;SDS011;24320;56.980;24.336;2023-07-31T10:20:27;10.65;;;5.57;;
28653;SDS011;24320;56.980;24.336;2023-07-31T10:22:55;8.52;;;5.40;;
28653;SDS011;24320;56.980;24.336;2023-07-31T10:25:23;7.20;;;5.07;;
28653;SDS011;24320;56.980;24.336;2023-07-31T10:27:51;7.85;;;4.97;;
28653;SDS011;24320;56.980;24.336;2023-07-31T10:30:20;10.50;;;5.53;;
28653;SDS011;24320;56.980;24.336;2023-07-31T10:32:51;9.00;;;4.65;;
28653;SDS011;24320;56.980;24.336;2023-07-31T10:35:20;9.25;;;5.10;;
28653;SDS011;24320;56.980;24.336;2023-07-31T10:37:51;9.90;;;5.07;;
28653;SDS011;24320;56.980;24.336;2023-07-31T10:40:20;10.75;;;5.40;;
28653;SDS011;24320;56.980;24.336;2023-07-31T10:42:51;8.30;;;4.68;;
28653;SDS011;24320;56.980;24.336;2023-07-31T10:45:24;8.50;;;5.13;;
28653;SDS011;24320;56.980;24.336;2023-07-31T10:48:12;8.40;;;4.90;;
28653;SDS011;24320;56.980;24.336;2023-07-31T10:53:26;7.60;;;4.78;;
28653;SDS011;24320;56.980;24.336;2023-07-31T10:55:53;7.38;;;4.20;;
28653;SDS011;24320;56.980;24.336;2023-07-31T10:58:28;6.80;;;4.47;;
28653;SDS011;24320;56.980;24.336;2023-07-31T11:00:55;4.40;;;4.00;;
28653;SDS011;24320;56.980;24.336;2023-07-31T11:03:29;8.48;;;3.80;;
28653;SDS011;24320;56.980;24.336;2023-07-31T11:06:10;10.93;;;4.05;;
28653;SDS011;24320;56.980;24.336;2023-07-31T11:08:41;4.73;;;3.43;;
28653;SDS011;24320;56.980;24.336;2023-07-31T11:11:11;3.47;;;2.88;;
28653;SDS011;24320;56.980;24.336;2023-07-31T11:13:41;5.45;;;3.13;;
28653;SDS011;24320;56.980;24.336;2023-07-31T11:16:10;5.97;;;3.00;;
28653;SDS011;24320;56.980;24.336;2023-07-31T11:18:39;8.60;;;3.50;;
28653;SDS011;24320;56.980;24.336;2023-07-31T11:21:08;6.85;;;3.53;;
28653;SDS011;24320;56.980;24.336;2023-07-31T11:23:39;4.80;;;3.30;;
28653;SDS011;24320;56.980;24.336;2023-07-31T11:26:07;5.35;;;2.97;;
28653;SDS011;24320;56.980;24.336;2023-07-31T11:28:34;6.00;;;3.22;;
28653;SDS011;24320;56.980;24.336;2023-07-31T11:31:02;4.95;;;3.05;;
28653;SDS011;24320;56.980;24.336;2023-07-31T11:33:30;5.15;;;2.67;;
28653;SDS011;24320;56.980;24.336;2023-07-31T11:35:57;3.65;;;2.47;;
28653;SDS011;24320;56.980;24.336;2023-07-31T11:38:24;3.00;;;2.58;;
28653;SDS011;24320;56.980;24.336;2023-07-31T11:40:57;3.55;;;2.78;;
28653;SDS011;24320;56.980;24.336;2023-07-31T11:43:29;4.82;;;2.20;;
28653;SDS011;24320;56.980;24.336;2023-07-31T11:45:58;3.65;;;2.03;;
28653;SDS011;24320;56.980;24.336;2023-07-31T11:48:33;3.20;;;2.10;;
28653;SDS011;24320;56.980;24.336;2023-07-31T11:51:03;2.47;;;1.83;;
28653;SDS011;24320;56.980;24.336;2023-07-31T11:53:32;3.80;;;2.30;;
28653;SDS011;24320;56.980;24.336;2023-07-31T11:56:12;3.78;;;2.10;;
28653;SDS011;24320;56.980;24.336;2023-07-31T11:58:42;2.90;;;2.10;;
28653;SDS011;24320;56.980;24.336;2023-07-31T12:01:13;3.83;;;2.30;;
28653;SDS011;24320;56.980;24.336;2023-07-31T12:03:43;3.60;;;2.22;;
28653;SDS011;24320;56.980;24.336;2023-07-31T12:06:11;22.38;;;13.18;;
28653;SDS011;24320;56.980;24.336;2023-07-31T12:08:38;5.93;;;3.25;;
28653;SDS011;24320;56.980;24.336;2023-07-31T12:11:07;8.65;;;5.50;;
28653;SDS011;24320;56.980;24.336;2023-07-31T12:13:40;7.15;;;3.97;;
28653;SDS011;24320;56.980;24.336;2023-07-31T12:16:07;6.32;;;3.38;;
28653;SDS011;24320;56.980;24.336;2023-07-31T12:18:36;2.80;;;2.17;;
28653;SDS011;24320;56.980;24.336;2023-07-31T12:21:05;6.95;;;2.20;;
28653;SDS011;24320;56.980;24.336;2023-07-31T12:23:35;3.28;;;2.13;;
28653;SDS011;24320;56.980;24.336;2023-07-31T12:26:04;2.65;;;1.98;;
28653;SDS011;24320;56.980;24.336;2023-07-31T12:28:44;8.50;;;2.08;;
28653;SDS011;24320;56.980;24.336;2023-07-31T12:31:16;1.40;;;1.30;;
28653;SDS011;24320;56.980;24.336;2023-07-31T12:33:47;2.13;;;1.50;;
28653;SDS011;24320;56.980;24.336;2023-07-31T12:36:17;4.30;;;1.67;;
28653;SDS011;24320;56.980;24.336;2023-07-31T12:38:46;2.80;;;1.42;;
28653;SDS011;24320;56.980;24.336;2023-07-31T12:41:13;3.83;;;1.60;;
28653;SDS011;24320;56.980;24.336;2023-07-31T12:43:41;1.73;;;1.60;;
28653;SDS011;24320;56.980;24.336;2023-07-31T12:46:09;2.33;;;1.73;;
28653;SDS011;24320;56.980;24.336;2023-07-31T12:48:37;1.73;;;1.45;;
28653;SDS011;24320;56.980;24.336;2023-07-31T12:51:05;2.58;;;1.70;;
28653;SDS011;24320;56.980;24.336;2023-07-31T12:53:35;3.45;;;1.60;;
28653;SDS011;24320;56.980;24.336;2023-07-31T12:56:02;2.70;;;1.60;;
28653;SDS011;24320;56.980;24.336;2023-07-31T12:58:30;2.35;;;1.50;;
28653;SDS011;24320;56.980;24.336;2023-07-31T13:00:57;1.27;;;1.17;;
28653;SDS011;24320;56.980;24.336;2023-07-31T13:03:24;2.35;;;1.50;;
28653;SDS011;24320;56.980;24.336;2023-07-31T13:05:51;2.88;;;1.52;;
28653;SDS011;24320;56.980;24.336;2023-07-31T13:08:19;1.90;;;1.30;;
28653;SDS011;24320;56.980;24.336;2023-07-31T13:10:46;1.38;;;1.17;;
28653;SDS011;24320;56.980;24.336;2023-07-31T13:13:13;1.30;;;1.20;;
28653;SDS011;24320;56.980;24.336;2023-07-31T13:15:40;1.40;;;1.30;;
28653;SDS011;24320;56.980;24.336;2023-07-31T13:18:08;1.80;;;1.10;;
28653;SDS011;24320;56.980;24.336;2023-07-31T13:20:35;1.75;;;1.10;;
28653;SDS011;24320;56.980;24.336;2023-07-31T13:23:02;1.40;;;1.02;;
28653;SDS011;24320;56.980;24.336;2023-07-31T13:25:29;1.38;;;1.23;;
28653;SDS011;24320;56.980;24.336;2023-07-31T13:27:56;1.40;;;1.20;;
28653;SDS011;24320;56.980;24.336;2023-07-31T13:30:27;2.45;;;1.40;;
28653;SDS011;24320;56.980;24.336;2023-07-31T13:32:54;1.25;;;1.10;;
28653;SDS011;24320;56.980;24.336;2023-07-31T13:35:21;2.53;;;1.00;;
28653;SDS011;24320;56.980;24.336;2023-07-31T13:37:48;1.17;;;0.90;;
28653;SDS011;24320;56.980;24.336;2023-07-31T13:40:15;2.10;;;0.90;;
28653;SDS011;24320;56.980;24.336;2023-07-31T13:42:42;2.58;;;0.88;;
28653;SDS011;24320;56.980;24.336;2023-07-31T13:45:09;0.85;;;0.80;;
28653;SDS011;24320;56.980;24.336;2023-07-31T13:47:37;1.42;;;0.95;;
28653;SDS011;24320;56.980;24.336;2023-07-31T13:50:04;1.60;;;0.95;;
28653;SDS011;24320;56.980;24.336;2023-07-31T13:52:31;1.00;;;0.90;;
28653;SDS011;24320;56.980;24.336;2023-07-31T13:54:58;1.50;;;1.00;;
28653;SDS011;24320;56.980;24.336;2023-07-31T13:57:25;1.42;;;1.10;;
28653;SDS011;24320;56.980;24.336;2023-07-31T13:59:52;3.60;;;1.17;;
28653;SDS011;24320;56.980;24.336;2023-07-31T14:02:19;1.35;;;0.90;;
28653;SDS011;24320;56.980;24.336;2023-07-31T14:04:46;1.35;;;1.05;;
28653;SDS011;24320;56.980;24.336;2023-07-31T14:07:15;1.70;;;1.10;;
28653;SDS011;24320;56.980;24.336;2023-07-31T14:09:44;1.33;;;1.10;;
28653;SDS011;24320;56.980;24.336;2023-07-31T14:12:11;1.42;;;1.10;;
28653;SDS011;24320;56.980;24.336;2023-07-31T14:14:38;1.20;;;1.10;;
28653;SDS011;24320;56.980;24.336;2023-07-31T14:17:05;1.27;;;1.17;;
28653;SDS011;24320;56.980;24.336;2023-07-31T14:19:32;1.55;;;1.23;;
28653;SDS011;24320;56.980;24.336;2023-07-31T14:21:59;1.30;;;1.20;;
28653;SDS011;24320;56.980;24.336;2023-07-31T14:24:37;1.10;;;0.90;;
28653;SDS011;24320;56.980;24.336;2023-07-31T14:27:04;1.63;;;1.20;;
28653;SDS011;24320;56.980;24.336;2023-07-31T14:29:32;2.88;;;2.13;;
28653;SDS011;24320;56.980;24.336;2023-07-31T14:31:59;11.07;;;6.60;;
28653;SDS011;24320;56.980;24.336;2023-07-31T14:34:26;24.95;;;15.35;;
28653;SDS011;24320;56.980;24.336;2023-07-31T14:36:54;4.18;;;2.75;;
28653;SDS011;24320;56.980;24.336;2023-07-31T14:39:21;2.67;;;1.10;;
28653;SDS011;24320;56.980;24.336;2023-07-31T14:41:48;3.30;;;2.50;;
28653;SDS011;24320;56.980;24.336;2023-07-31T14:44:15;3.55;;;1.27;;